Latest Weather Observations for Hamilton Island

IDQ60801

Issued at 1:32 pm EST Sunday 21 December 2014 (issued every 30 minutes, with the page automatically refreshed every 10 minutes)

About weather observations | Map of weather stations | Latest weather observations for QLD | Other Formats
Station Details ID: 033106 Name: HAMILTON ISLAND AIRPORT Lat: -20.37 Lon: 148.95 Height: 58.66 m
Data from the previous 72 hours. | See also: Recent months at Hamilton Island
Date/Time
EST
Temp
°C
App
Temp
°C
Dew
Point
Rel
Hum
%
Delta-T
°C
Wind Press
QNH
hPa
Press
MSL
hPa
Rain
since 9 am
mm
Dir
 
Spd
km/h
Gust
km/h
Spd
kts
Gust
kts
21/01:30pm 29.9 29.0 22.1 63 5.3 ESE 30 35 16 19 1013.6 - 0.0
21/01:00pm 29.8 29.3 22.8 66 4.8 ESE 30 33 16 18 1013.7 - 0.0
21/12:30pm 30.4 31.1 23.6 67 4.7 ESE 26 32 14 17 1013.9 - 0.0
21/12:00pm 29.9 29.8 22.9 66 4.8 ESE 28 32 15 17 1014.3 1013.9 0.0
21/11:30am 29.8 29.5 22.5 65 5.0 SE 28 32 15 17 1014.5 - 0.0
21/11:00am 29.2 28.4 22.4 66 4.6 SE 30 32 16 17 1014.7 - 0.0
21/10:30am 29.7 29.1 22.7 66 4.8 ESE 30 37 16 20 1014.6 - 0.0
21/10:00am 29.6 29.2 22.3 65 5.0 ESE 28 35 15 19 1014.4 - 0.0
21/09:30am 29.4 28.9 22.9 68 4.4 SE 30 33 16 18 1014.4 - 0.0
21/09:00am 29.0 28.5 22.2 66 4.6 ESE 28 32 15 17 1014.4 1014.0 0.0
21/08:30am 28.8 28.4 22.3 68 4.4 ESE 28 35 15 19 1014.3 - 0.0
21/08:00am 28.4 28.3 22.2 69 4.2 ESE 26 30 14 16 1014.2 - 0.0
21/07:30am 27.8 26.5 21.3 67 4.3 E 30 33 16 18 1014.0 - 0.0
21/07:00am 26.7 26.8 21.9 75 3.2 ESE 24 28 13 15 1013.7 - 0.0
21/06:30am 27.1 27.0 22.3 75 3.2 ESE 26 32 14 17 1013.3 - 0.0
21/06:00am 26.6 25.9 21.8 75 3.2 ESE 28 33 15 18 1012.9 1012.5 0.0
21/05:30am 26.2 26.0 22.1 78 2.8 ESE 26 32 14 17 1012.5 - 0.0
21/05:00am 26.2 26.3 21.8 77 2.9 ESE 24 32 13 17 1012.2 - 0.0
21/04:30am 26.1 24.9 21.5 76 3.1 ESE 30 33 16 18 1011.9 - 0.0
21/04:00am 26.2 24.4 21.2 74 3.3 E 32 35 17 19 1011.5 - 0.0
21/03:30am 26.2 24.4 21.6 76 3.1 E 33 39 18 21 1011.3 - 0.0
21/03:00am 26.2 24.7 21.8 77 2.9 E 32 37 17 20 1011.3 1010.9 0.0
21/02:30am 26.2 24.2 21.2 74 3.3 ESE 33 39 18 21 1011.5 - 0.0
21/02:00am 26.1 24.2 21.3 75 3.2 ESE 33 39 18 21 1011.9 - 0.0
21/01:30am 26.2 24.3 21.0 73 3.4 ESE 32 37 17 20 1012.2 - 0.0
21/01:00am 26.3 24.4 21.3 74 3.3 ESE 33 37 18 20 1012.4 - 0.0
21/12:30am 26.3 24.7 21.5 75 3.2 ESE 32 35 17 19 1012.7 - 0.0
21/12:00am 26.5 25.4 21.7 75 3.2 E 30 35 16 19 1013.1 1012.7 0.0
 
Date/Time
EST
Temp
°C
App
Temp
°C
Dew
Point
Rel
Hum
%
Delta-T
°C
Wind Press
QNH
hPa
Press
MSL
hPa
Rain
since 9 am
mm
Dir
 
Spd
km/h
Gust
km/h
Spd
kts
Gust
kts
20/11:30pm 26.4 24.6 21.2 73 3.4 ESE 32 39 17 21 1013.3 - 0.0
20/11:00pm 26.3 24.5 20.4 70 3.9 ESE 30 35 16 19 1013.4 - 0.0
20/10:30pm 26.3 24.6 20.6 71 3.7 ESE 30 37 16 20 1013.5 - 0.0
20/10:00pm 26.3 24.5 21.1 73 3.4 ESE 32 39 17 21 1013.5 - 0.0
20/09:30pm 26.4 24.4 21.8 76 3.1 ESE 35 41 19 22 1013.3 - 0.0
20/09:00pm 26.4 25.0 22.0 77 3.0 ESE 32 39 17 21 1013.4 1013.0 0.0
20/08:30pm 26.5 25.0 22.1 77 3.0 ESE 33 41 18 22 1013.1 - 0.0
20/08:00pm 26.6 25.1 22.7 79 2.6 ESE 35 43 19 23 1012.6 - 0.0
20/07:30pm 26.7 24.8 22.8 79 2.6 ESE 37 46 20 25 1012.1 - 0.0
20/07:00pm 26.9 26.4 22.9 79 2.7 ESE 30 35 16 19 1011.8 - 0.0
20/06:30pm 27.0 26.1 22.2 75 3.2 ESE 30 33 16 18 1011.6 - 0.0
20/06:00pm 27.5 26.9 22.0 72 3.7 ESE 28 33 15 18 1011.4 1011.0 0.0
20/05:30pm 27.6 27.2 22.3 73 3.6 ESE 28 33 15 18 1010.8 - 0.0
20/05:00pm 27.9 27.1 22.4 72 3.7 ESE 30 33 16 18 1010.5 - 0.0
20/04:30pm 28.1 27.3 22.3 70 3.9 ESE 30 33 16 18 1010.2 - 0.0
20/04:00pm 28.2 26.7 21.7 68 4.4 ESE 32 35 17 19 1010.4 - 0.0
20/03:30pm 28.4 27.5 22.9 72 3.8 E 32 35 17 19 1010.1 - 0.0
20/03:00pm 28.3 27.5 22.3 70 4.1 E 30 33 16 18 1010.3 1009.9 0.0
20/02:30pm 28.6 29.0 23.1 72 3.8 E 26 30 14 16 1010.6 - 0.0
20/02:00pm 29.0 29.9 23.4 72 3.9 E 24 28 13 15 1010.9 - 0.0
20/01:30pm 29.6 31.2 24.5 74 3.6 ESE 24 28 13 15 1011.2 - 0.0
20/01:00pm 29.5 31.8 24.1 72 3.8 E 19 22 10 12 1011.7 - 0.0
20/12:30pm 29.3 32.3 24.0 73 3.7 ESE 15 19 8 10 1011.9 - 0.0
20/12:00pm 29.3 32.3 24.0 73 3.7 SE 15 19 8 10 1012.4 1012.0 0.0
20/11:30am 29.7 32.5 24.3 73 3.8 SSE 17 19 9 10 1012.9 - 0.0
20/11:00am 29.3 31.6 23.5 71 4.0 SSE 17 20 9 11 1013.3 - 0.0
20/10:30am 29.0 31.7 24.1 75 3.4 SSE 17 20 9 11 1013.2 - 0.0
20/10:00am 28.7 31.1 22.9 71 4.0 SSE 15 19 8 10 1013.2 - 0.0
20/09:30am 29.0 32.2 24.3 76 3.3 SE 15 17 8 9 1013.2 - 0.0
20/09:00am 28.2 31.1 23.8 77 3.0 SSE 15 17 8 9 1013.1 1012.7 6.2
20/08:30am 27.3 31.8 24.6 85 1.9 S 9 13 5 7 1013.0 - 6.2
20/08:00am 26.4 30.6 23.5 84 2.0 SSW 7 11 4 6 1013.0 - 6.2
20/07:30am 25.6 28.7 22.9 85 1.8 SSW 11 15 6 8 1012.9 - 6.2
20/07:00am 25.6 28.1 22.5 83 2.1 SSE 13 17 7 9 1012.6 - 6.2
20/06:30am 25.8 30.2 23.5 87 1.6 SE 6 7 3 4 1012.3 - 6.2
20/06:00am 24.7 29.8 22.6 88 1.4 CALM 0 0 0 0 1012.2 1011.8 6.2
20/05:48am 24.7 28.5 22.8 89 1.3 WNW 7 11 4 6 1012.0 - 6.2
20/05:30am 24.8 29.6 22.9 89 1.3 ENE 2 9 1 5 1011.6 - 5.6
20/05:25am 25.0 30.2 22.9 88 1.4 CALM 0 0 0 0 1011.5 - 5.6
20/05:10am 24.8 27.2 22.9 89 1.3 ESE 15 20 8 11 1011.4 - 3.0
20/05:08am 24.7 27.0 22.8 89 1.3 ESE 15 20 8 11 1011.4 - 3.0
20/05:00am 24.9 26.1 22.2 85 1.8 SSE 19 24 10 13 1011.3 - 1.0
20/04:30am 26.2 29.5 22.5 80 2.5 NNE 9 11 5 6 1011.0 - 0.0
20/04:00am 25.8 29.8 22.1 80 2.5 N 4 7 2 4 1010.8 - 0.0
20/03:30am 25.9 30.8 22.4 81 2.4 CALM 0 0 0 0 1011.0 - 0.0
20/03:00am 25.9 30.2 22.6 82 2.2 NNW 4 6 2 3 1011.2 1010.8 0.0
20/02:30am 25.9 29.6 22.6 82 2.2 NW 7 9 4 5 1011.4 - 0.0
20/02:00am 26.1 30.1 22.0 78 2.7 NNE 4 7 2 4 1011.4 - 0.0
20/01:30am 26.0 30.0 22.1 79 2.6 N 4 6 2 3 1011.5 - 0.0
20/01:00am 26.0 29.2 22.3 80 2.5 E 9 11 5 6 1011.3 - 0.0
20/12:30am 26.1 29.9 22.4 80 2.5 E 6 7 3 4 1011.8 - 0.0
20/12:00am 26.3 30.4 22.2 78 2.8 NNW 4 7 2 4 1012.4 1012.0 0.0
 
Date/Time
EST
Temp
°C
App
Temp
°C
Dew
Point
Rel
Hum
%
Delta-T
°C
Wind Press
QNH
hPa
Press
MSL
hPa
Rain
since 9 am
mm
Dir
 
Spd
km/h
Gust
km/h
Spd
kts
Gust
kts
19/11:30pm 26.4 29.9 21.8 76 3.1 N 6 7 3 4 1012.7 - 0.0
19/11:00pm 26.7 29.7 21.9 75 3.2 NNE 9 13 5 7 1012.8 - 0.0
19/10:30pm 26.8 30.3 21.8 74 3.3 NNE 6 9 3 5 1012.8 - 0.0
19/10:00pm 26.9 30.1 21.6 72 3.5 N 7 11 4 6 1013.0 - 0.0
19/09:30pm 26.8 29.5 21.3 72 3.7 NE 9 9 5 5 1012.6 - 0.0
19/09:00pm 27.0 29.9 21.1 70 3.9 NNE 7 9 4 5 1012.5 1012.1 0.0
19/08:30pm 27.2 29.7 21.0 69 4.1 N 9 11 5 6 1012.4 - 0.0
19/08:00pm 27.3 29.6 21.3 69 4.0 N 11 13 6 7 1012.3 - 0.0
19/07:30pm 27.2 29.2 21.5 71 3.8 NNW 13 15 7 8 1012.0 - 0.0
19/07:00pm 27.3 29.0 21.6 71 3.8 NNW 15 17 8 9 1011.7 - 0.0
19/06:30pm 27.5 28.6 21.3 69 4.1 NNW 17 20 9 11 1011.1 - 0.0
19/06:00pm 28.0 30.2 21.8 69 4.2 NNW 13 17 7 9 1010.7 1010.3 0.0
19/05:30pm 27.9 29.7 21.9 70 4.0 NNW 15 19 8 10 1010.6 - 0.0
19/05:00pm 28.6 30.9 22.1 68 4.4 NNW 13 17 7 9 1010.5 - 0.0
19/04:30pm 28.7 31.6 22.4 68 4.3 NNW 11 17 6 9 1010.5 - 0.0
19/04:00pm 28.6 30.6 21.6 66 4.7 NNW 13 19 7 10 1010.2 - 0.0
19/03:30pm 29.2 31.3 21.7 64 5.0 NNW 13 17 7 9 1010.3 - 0.0
19/03:00pm 29.0 31.1 21.0 62 5.3 NNW 11 13 6 7 1010.5 1010.1 0.0
19/02:30pm 28.4 29.3 20.9 64 5.0 NNW 17 20 9 11 1010.8 - 0.0
19/02:00pm 29.0 30.4 21.0 62 5.3 NNW 15 19 8 10 1011.2 - 0.0
19/01:30pm 29.3 30.5 21.5 63 5.2 NNW 17 20 9 11 1011.4 - 0.0
19/01:00pm 29.4 30.2 21.4 62 5.4 NW 19 24 10 13 1011.5 - 0.0
19/12:30pm 30.6 31.9 21.7 59 6.0 NNW 17 22 9 12 1011.8 - 0.0
19/12:00pm 29.4 29.0 21.6 63 5.2 NNW 26 32 14 17 1012.0 1011.6 0.0
19/11:30am 29.2 28.8 21.7 64 5.0 NNW 26 32 14 17 1012.4 - 0.0
19/11:00am 29.1 29.4 21.6 64 5.0 NNW 22 30 12 16 1012.5 - 0.0
19/10:30am 28.5 28.0 21.5 66 4.7 NNW 26 33 14 18 1012.5 - 0.0
19/10:00am 28.3 28.6 21.6 67 4.5 NNW 22 28 12 15 1012.5 - 0.0
19/09:30am 28.3 29.0 21.6 67 4.5 NW 20 26 11 14 1012.5 - 0.0
19/09:00am 27.9 28.7 21.7 69 4.2 NNW 20 28 11 15 1012.5 1012.1 0.0
19/08:30am 27.7 28.0 21.5 69 4.1 NNW 22 28 12 15 1012.6 - 0.0
19/08:00am 27.1 28.4 21.6 72 3.7 NNW 17 20 9 11 1012.4 - 0.0
19/07:30am 26.9 28.4 21.2 71 3.8 NNW 15 19 8 10 1012.1 - 0.0
19/07:00am 27.0 28.9 21.3 71 3.8 N 13 17 7 9 1011.8 - 0.0
19/06:30am 26.2 28.8 21.2 74 3.3 N 9 13 5 7 1011.3 - 0.0
19/06:00am 25.8 29.0 21.2 76 3.0 N 6 7 3 4 1011.2 1010.8 0.0
19/05:30am 25.5 27.8 21.4 78 2.7 N 11 15 6 8 1010.8 - 0.0
19/05:00am 25.4 28.3 21.7 80 2.5 NNW 9 13 5 7 1010.9 - 0.0
19/04:30am 25.6 28.8 21.7 79 2.6 N 7 9 4 5 1010.7 - 0.0
19/04:00am 25.6 28.5 21.7 79 2.6 N 9 11 5 6 1010.8 - 0.0
19/03:30am 25.8 28.2 21.5 77 2.9 N 11 17 6 9 1011.1 - 0.0
19/03:00am 25.8 27.8 21.5 77 2.9 N 13 17 7 9 1011.1 1010.7 0.0
19/02:30am 25.8 28.6 21.5 77 2.9 N 9 11 5 6 1011.4 - 0.0
19/02:00am 26.0 28.5 21.7 77 2.9 NW 11 15 6 8 1011.6 - 0.0
19/01:30am 26.2 27.5 21.6 76 3.1 NW 17 20 9 11 1011.9 - 0.0
19/01:00am 25.8 27.8 21.5 77 2.9 WNW 13 15 7 8 1012.5 - 0.0
19/12:30am 26.0 27.2 21.4 76 3.1 W 17 20 9 11 1013.0 - 0.0
19/12:00am 26.6 27.0 21.8 75 3.2 W 22 32 12 17 1013.2 1012.8 0.0
 
Date/Time
EST
Temp
°C
App
Temp
°C
Dew
Point
Rel
Hum
%
Delta-T
°C
Wind Press
QNH
hPa
Press
MSL
hPa
Rain
since 9 am
mm
Dir
 
Spd
km/h
Gust
km/h
Spd
kts
Gust
kts
18/11:30pm 26.2 29.0 21.6 76 3.1 NW 9 11 5 6 1013.2 - 0.0
18/11:00pm 26.1 28.0 21.3 75 3.2 N 13 17 7 9 1012.8 - 0.0
18/10:30pm 26.1 28.4 21.3 75 3.2 N 11 15 6 8 1012.8 - 0.0
18/10:00pm 26.3 27.8 21.3 74 3.3 N 15 19 8 10 1012.8 - 0.0
18/09:30pm 26.3 27.8 21.3 74 3.3 N 15 19 8 10 1012.9 - 0.0
18/09:00pm 26.3 27.4 21.3 74 3.3 N 17 26 9 14 1012.3 1011.9 0.0
18/08:30pm 26.5 27.1 21.0 72 3.6 N 19 26 10 14 1012.1 - 0.0
18/08:00pm 26.6 27.2 21.1 72 3.6 N 19 26 10 14 1012.0 - 0.0
18/07:30pm 26.8 27.2 20.9 70 3.9 NNW 20 28 11 15 1011.4 - 0.0
18/07:00pm 26.8 26.8 20.9 70 3.9 NNW 22 32 12 17 1010.9 - 0.0
18/06:30pm 27.2 26.1 21.0 69 4.1 NNW 28 35 15 19 1010.7 - 0.0
18/06:00pm 27.8 26.8 21.3 67 4.3 NNW 28 35 15 19 1010.5 1010.1 0.0
18/05:30pm 28.1 26.9 21.6 68 4.4 NNW 30 35 16 19 1010.4 - 0.0
18/05:00pm 28.1 26.4 21.4 67 4.5 NW 32 41 17 22 1009.4 - 0.0
18/04:30pm 28.8 27.5 22.1 67 4.5 NW 32 39 17 21 1008.8 - 0.0
18/04:00pm 28.8 27.5 21.3 64 5.0 NW 30 39 16 21 1008.9 - 0.0
18/03:30pm 28.9 27.1 21.1 62 5.2 NW 32 39 17 21 1009.2 - 0.0
18/03:00pm 29.5 28.1 21.2 61 5.6 NW 30 39 16 21 1009.8 1009.4 0.0
18/02:30pm 29.6 28.4 21.5 61 5.4 NW 30 37 16 20 1010.2 - 0.0
18/02:00pm 29.9 29.4 22.1 63 5.3 NW 28 39 15 21 1010.7 - 0.0

Other Formats:

Comma delimited format used in spreadsheet applications
http://www.bom.gov.au/fwo/IDQ60801/IDQ60801.94368.axf

JavaScript Object Notation format (JSON) in row-major order
http://www.bom.gov.au/fwo/IDQ60801/IDQ60801.94368.json